Terminal Aerodrome Forecast
Issued by NWS

Home | Current Version | Previous Version | Text Only | Print | Product List | Glossary On
Versions: 1 2 3 4 5 6 7 8 9 10 11 12 13 14 15 16
000
FTUS46 KMTR 051737
TAFMRY
TAF
KMRY 051737Z 0518/0618 26008KT P6SM VCSH FEW030 SCT040 BKN100
     FM060300 21004KT P6SM VCSH BKN035 BKN080
     FM060600 23006KT P6SM VCSH BKN020 BKN060
     FM060800 23006KT P6SM VCSH BKN010 OVC035
     FM061700 23006KT P6SM VCSH SCT012 BKN035 BKN060=

USA.gov is the U.S. government's official web portal to all federal, state and local government web resources and services.